Time;durP1;ratioP1;P1;durP2;ratioP2;P2;SDS_P1;SDS_P2;PMS_P1;PMS_P2;Temp;Humidity;BMP_temperature;BMP_pressure;BME280_temperature;BME280_humidity;BME280_pressure;Samples;Min_cycle;Max_cycle;Signal;HPM_P1;HPM_P2
2024/03/31 00:04:52;;;;;;;0.63;0.63;;;14.60;99.90;;;;;;10392989;28;20068;-57
2024/03/31 00:09:56;;;;;;;0.63;0.63;;;14.60;99.90;;;;;;10400520;28;20072;-53
2024/03/31 00:15:00;;;;;;;0.10;0.10;;;14.60;99.90;;;;;;10396596;28;20053;-56
2024/03/31 00:20:04;;;;;;;2.10;1.38;;;14.70;99.90;;;;;;10397090;28;20044;-57
2024/03/31 00:25:06;;;;;;;1.15;1.10;;;14.60;99.90;;;;;;10400636;28;20137;-57
2024/03/31 00:30:13;;;;;;;0.10;0.10;;;14.60;99.90;;;;;;10404331;28;20049;-54
2024/03/31 00:35:15;;;;;;;2.55;1.45;;;14.70;99.90;;;;;;10403779;28;20053;-55
2024/03/31 00:40:17;;;;;;;2.37;1.07;;;14.60;99.90;;;;;;10405650;28;20045;-52
2024/03/31 00:45:23;;;;;;;0.52;0.35;;;14.60;99.90;;;;;;10406138;28;20495;-54
2024/03/31 00:50:25;;;;;;;2.13;2.03;;;14.50;99.90;;;;;;10401191;28;20073;-56
2024/03/31 00:55:28;;;;;;;0.43;0.43;;;14.50;99.90;;;;;;10404283;28;20668;-58
2024/03/31 01:00:40;;;;;;;0.73;0.73;;;14.50;99.90;;;;;;10404189;28;20057;-57
2024/03/31 01:05:52;;;;;;;;;;;;;;;;;;;;;
2024/03/31 01:10:55;;;;;;;0.40;0.40;;;14.50;99.90;;;;;;10416042;28;20413;-55
2024/03/31 01:16:02;;;;;;;0.75;0.75;;;14.50;99.90;;;;;;10401174;28;20061;-56
2024/03/31 01:21:12;;;;;;;1.00;0.85;;;14.60;99.90;;;;;;10422527;28;20069;-54
2024/03/31 01:26:18;;;;;;;0.30;0.28;;;14.40;99.90;;;;;;10422725;28;20053;-53
2024/03/31 01:31:20;;;;;;;3.00;1.55;;;14.30;99.90;;;;;;10406924;28;20052;-57
2024/03/31 01:36:22;;;;;;;15.85;10.32;;;14.40;99.90;;;;;;10404687;28;20068;-54
2024/03/31 01:41:29;;;;;;;11.70;8.03;;;14.30;99.90;;;;;;10404290;28;20052;-55
2024/03/31 01:46:32;;;;;;;9.77;6.63;;;14.50;99.90;;;;;;10404542;28;20053;-56
2024/03/31 01:51:34;;;;;;;12.73;7.22;;;14.70;99.90;;;;;;10397846;28;20420;-57
2024/03/31 01:56:38;;;;;;;15.53;10.60;;;14.70;99.90;;;;;;10396028;28;20543;-55
2024/03/31 02:01:40;;;;;;;22.27;11.23;;;14.50;99.90;;;;;;10405537;28;20064;-55
2024/03/31 02:06:43;;;;;;;15.60;6.70;;;14.70;99.90;;;;;;10395078;28;20080;-55
2024/03/31 02:11:50;;;;;;;22.58;7.03;;;14.70;99.90;;;;;;10403258;28;20107;-55
2024/03/31 02:16:52;;;;;;;35.45;7.65;;;14.80;99.90;;;;;;10396627;28;20537;-56
2024/03/31 02:21:54;;;;;;;14.17;7.73;;;14.70;99.90;;;;;;10406601;28;20549;-55
2024/03/31 02:27:00;;;;;;;21.77;10.03;;;14.60;99.90;;;;;;10406373;28;20445;-55
2024/03/31 02:32:01;;;;;;;14.95;8.38;;;14.70;99.90;;;;;;10411351;28;20103;-55
2024/03/31 02:37:04;;;;;;;12.37;7.97;;;14.50;99.90;;;;;;10407991;28;20041;-55
2024/03/31 02:42:07;;;;;;;13.65;9.48;;;14.60;99.90;;;;;;10418935;28;20057;-56
2024/03/31 02:47:09;;;;;;;11.95;8.10;;;14.70;99.90;;;;;;10424422;28;20128;-54
2024/03/31 02:52:13;;;;;;;14.03;8.37;;;14.50;99.90;;;;;;10411023;28;20584;-54
2024/03/31 02:57:19;;;;;;;12.05;8.23;;;14.40;99.90;;;;;;10419761;28;20492;-55
2024/03/31 03:02:22;;;;;;;11.10;7.78;;;14.50;99.90;;;;;;10415856;28;20054;-51
2024/03/31 03:07:24;;;;;;;12.00;7.82;;;14.60;99.90;;;;;;10418943;28;20096;-56
2024/03/31 03:12:27;;;;;;;10.25;7.35;;;14.90;99.90;;;;;;10419508;28;20057;-53
2024/03/31 03:17:29;;;;;;;13.02;8.95;;;14.70;99.90;;;;;;10423521;28;20044;-52
2024/03/31 03:22:31;;;;;;;7.83;5.83;;;14.70;99.90;;;;;;10424327;28;20064;-53
2024/03/31 03:27:36;;;;;;;12.97;8.93;;;14.80;99.90;;;;;;10423642;28;20053;-55
2024/03/31 03:32:41;;;;;;;9.70;6.68;;;14.60;99.90;;;;;;10416720;28;20190;-56
2024/03/31 03:38:04;;;;;;;11.35;7.38;;;14.90;99.90;;;;;;10418221;28;20137;-57
2024/03/31 03:43:25;;;;;;;8.40;7.22;;;15.10;99.90;;;;;;10422036;28;20070;-52
2024/03/31 03:48:27;;;;;;;7.80;5.80;;;14.90;99.90;;;;;;10416984;28;20065;-55
2024/03/31 03:53:29;;;;;;;13.00;7.85;;;14.90;99.90;;;;;;10420233;28;20056;-54
2024/03/31 03:58:33;;;;;;;8.55;6.15;;;15.00;99.90;;;;;;10411995;28;20276;-53
2024/03/31 04:03:35;;;;;;;10.05;8.15;;;15.20;99.90;;;;;;10403586;28;20049;-58
2024/03/31 04:08:42;;;;;;;10.43;7.97;;;14.90;99.90;;;;;;10399887;28;20073;-54
2024/03/31 04:13:46;;;;;;;5.88;4.47;;;15.00;99.90;;;;;;10404098;28;20045;-55
2024/03/31 04:18:52;;;;;;;11.82;8.05;;;15.30;99.90;;;;;;10398653;28;20121;-55
2024/03/31 04:23:54;;;;;;;8.63;6.85;;;15.00;99.90;;;;;;10399220;28;20435;-55
2024/03/31 04:28:58;;;;;;;;;;;15.20;99.90;;;;;;10401134;28;20107;-56
2024/03/31 04:34:09;;;;;;;;;;;15.00;99.90;;;;;;10404050;28;19921;-52
2024/03/31 04:39:13;;;;;;;7.55;5.43;;;15.00;99.90;;;;;;10399956;28;19928;-55
2024/03/31 04:44:17;;;;;;;5.72;4.15;;;14.90;99.90;;;;;;10383391;28;20704;-54
2024/03/31 04:49:19;;;;;;;6.75;5.40;;;14.90;99.90;;;;;;10407267;28;20049;-53
2024/03/31 04:54:21;;;;;;;10.80;7.07;;;14.90;99.90;;;;;;10410983;28;20059;-56
2024/03/31 04:59:24;;;;;;;8.93;5.05;;;15.10;99.90;;;;;;10399626;28;20797;-56
2024/03/31 05:04:26;;;;;;;6.47;4.60;;;15.20;99.90;;;;;;10404038;28;20045;-53
2024/03/31 05:09:37;;;;;;;7.40;4.60;;;15.10;99.90;;;;;;10412838;28;20958;-55
2024/03/31 05:14:40;;;;;;;6.30;3.90;;;15.30;99.90;;;;;;10408472;28;20514;-54
2024/03/31 05:19:42;;;;;;;6.22;4.85;;;15.40;99.90;;;;;;10405396;28;20544;-56
2024/03/31 05:24:47;;;;;;;8.73;4.80;;;15.70;99.90;;;;;;10407645;28;20057;-56
2024/03/31 05:29:54;;;;;;;6.22;4.38;;;15.30;99.90;;;;;;10411034;28;20091;-57
2024/03/31 05:34:56;;;;;;;8.45;4.63;;;15.50;99.90;;;;;;10399168;28;20041;-55
2024/03/31 05:39:58;;;;;;;6.40;4.33;;;15.50;99.90;;;;;;10401548;28;20053;-56
2024/03/31 05:45:04;;;;;;;6.65;4.22;;;15.40;99.90;;;;;;10403405;28;20084;-55
2024/03/31 05:50:07;;;;;;;6.43;4.78;;;15.60;99.90;;;;;;10398214;28;20493;-51
2024/03/31 05:55:15;;;;;;;6.13;4.05;;;15.40;99.90;;;;;;10392000;28;20057;-52
2024/03/31 06:00:19;;;;;;;4.20;2.80;;;15.50;99.90;;;;;;10408195;28;20132;-51
2024/03/31 06:05:21;;;;;;;6.82;4.60;;;15.80;99.90;;;;;;10410022;28;20817;-55
2024/03/31 06:10:23;;;;;;;5.05;3.00;;;15.60;99.90;;;;;;10417473;28;20050;-55
2024/03/31 06:15:27;;;;;;;4.82;3.63;;;15.70;99.90;;;;;;10412239;28;20116;-56
2024/03/31 06:20:28;;;;;;;5.18;3.53;;;15.60;99.90;;;;;;10396019;28;20061;-56
2024/03/31 06:25:30;;;;;;;2.47;2.20;;;15.70;99.90;;;;;;10399343;28;20052;-57
2024/03/31 06:30:34;;;;;;;3.37;2.53;;;15.90;99.90;;;;;;10399456;28;20479;-54
2024/03/31 06:35:37;;;;;;;3.55;3.20;;;16.00;99.90;;;;;;10403507;28;20053;-57
2024/03/31 06:40:39;;;;;;;5.47;3.58;;;16.00;99.90;;;;;;10402641;28;20485;-54
2024/03/31 06:45:44;;;;;;;4.38;3.40;;;15.90;99.90;;;;;;10399055;28;20528;-56
2024/03/31 06:50:47;;;;;;;3.45;2.88;;;16.20;99.90;;;;;;10405651;28;20041;-56
2024/03/31 06:55:49;;;;;;;6.22;2.50;;;16.30;99.90;;;;;;10406236;28;20453;-56
2024/03/31 07:00:59;;;;;;;4.43;2.30;;;16.20;99.90;;;;;;10414932;28;20152;-53
2024/03/31 07:06:02;;;;;;;3.22;2.72;;;16.20;99.90;;;;;;10407310;28;21172;-56
2024/03/31 07:11:04;;;;;;;4.78;3.38;;;16.20;99.90;;;;;;10402004;28;20520;-58
2024/03/31 07:16:10;;;;;;;6.05;3.90;;;16.20;99.90;;;;;;10399514;28;20053;-58
2024/03/31 07:21:13;;;;;;;5.10;3.47;;;16.30;99.90;;;;;;10399602;28;20053;-55
2024/03/31 07:26:15;;;;;;;4.55;3.25;;;16.20;99.90;;;;;;10402687;28;20057;-56
2024/03/31 07:31:21;;;;;;;5.85;4.53;;;16.10;99.90;;;;;;10389040;28;20112;-54
2024/03/31 07:36:23;;;;;;;6.25;4.22;;;16.10;99.90;;;;;;10396960;28;21012;-56
2024/03/31 07:41:27;;;;;;;6.95;4.53;;;16.20;99.90;;;;;;10393867;28;20056;-55
2024/03/31 07:46:31;;;;;;;9.13;5.68;;;16.20;99.90;;;;;;10396569;28;20057;-57
2024/03/31 07:51:33;;;;;;;8.18;5.95;;;16.20;99.90;;;;;;10382691;28;20083;-56
2024/03/31 07:56:39;;;;;;;8.88;5.20;;;16.30;99.90;;;;;;10391010;28;20080;-56
2024/03/31 08:01:42;;;;;;;8.98;4.65;;;16.30;99.90;;;;;;10391258;28;20161;-56
2024/03/31 08:06:44;;;;;;;9.15;5.97;;;16.40;99.90;;;;;;10404678;28;20450;-56
2024/03/31 08:11:46;;;;;;;9.10;5.15;;;16.40;99.90;;;;;;10391087;28;20046;-56
2024/03/31 08:16:50;;;;;;;13.57;7.00;;;16.50;99.90;;;;;;10396230;28;20111;-56
2024/03/31 08:21:52;;;;;;;12.77;8.35;;;16.50;99.90;;;;;;10391722;28;20050;-55
2024/03/31 08:26:56;;;;;;;9.83;7.10;;;16.70;99.90;;;;;;10396811;28;20057;-55
2024/03/31 08:31:59;;;;;;;8.85;6.55;;;16.70;99.90;;;;;;10392086;28;20482;-55
2024/03/31 08:37:02;;;;;;;9.95;6.97;;;16.80;99.90;;;;;;10390817;28;20088;-58
2024/03/31 08:42:14;;;;;;;12.25;8.18;;;16.80;99.90;;;;;;10388012;28;20057;-55
2024/03/31 08:47:31;;;;;;;14.57;8.05;;;16.90;99.90;;;;;;10407548;28;20077;-58
2024/03/31 08:52:33;;;;;;;16.40;9.10;;;17.00;99.90;;;;;;10407985;28;20046;-58
2024/03/31 08:57:36;;;;;;;12.15;7.30;;;17.00;99.90;;;;;;10409866;28;20052;-55
2024/03/31 09:02:39;;;;;;;12.38;9.25;;;17.10;99.90;;;;;;10403152;28;20436;-56
2024/03/31 09:07:41;;;;;;;12.15;7.53;;;17.10;99.90;;;;;;10408115;28;20076;-53
2024/03/31 09:12:44;;;;;;;12.50;9.05;;;17.20;99.90;;;;;;10408353;28;20073;-56
2024/03/31 09:17:48;;;;;;;16.60;9.75;;;17.30;99.90;;;;;;10416757;28;20740;-58
2024/03/31 09:22:50;;;;;;;13.57;8.05;;;17.40;99.90;;;;;;10424478;28;20053;-58
2024/03/31 09:27:54;;;;;;;9.23;6.90;;;17.40;99.90;;;;;;10420417;28;20459;-55
2024/03/31 09:33:00;;;;;;;12.48;8.75;;;17.40;99.90;;;;;;10418372;28;20045;-56
2024/03/31 09:38:02;;;;;;;13.57;9.57;;;17.50;99.90;;;;;;10410724;28;20050;-58
2024/03/31 09:43:05;;;;;;;14.63;10.73;;;17.50;99.90;;;;;;10407310;28;20052;-55
2024/03/31 09:48:10;;;;;;;14.77;10.07;;;17.50;99.90;;;;;;10404001;28;20115;-56
2024/03/31 09:53:18;;;;;;;13.20;10.13;;;17.50;99.90;;;;;;10408132;28;20045;-55
2024/03/31 09:58:22;;;;;;;15.90;10.00;;;17.70;99.90;;;;;;10404736;28;20045;-56
2024/03/31 10:03:28;;;;;;;16.17;9.80;;;17.80;99.90;;;;;;10378902;28;20057;-56
2024/03/31 10:08:31;;;;;;;15.35;10.73;;;17.80;99.90;;;;;;10391596;28;20045;-58
2024/03/31 10:13:36;;;;;;;14.60;9.68;;;17.80;99.90;;;;;;10380830;28;20068;-56
2024/03/31 10:18:40;;;;;;;15.20;10.35;;;17.80;99.90;;;;;;10385056;28;20176;-55
2024/03/31 10:23:46;;;;;;;17.38;10.05;;;17.90;99.90;;;;;;10391606;28;20053;-57
2024/03/31 10:28:50;;;;;;;18.42;11.60;;;17.90;99.90;;;;;;10394961;28;20818;-55
2024/03/31 10:33:57;;;;;;;18.88;10.57;;;18.00;99.90;;;;;;10389556;28;20053;-57
2024/03/31 10:38:59;;;;;;;14.05;9.75;;;18.10;99.90;;;;;;10394646;28;20337;-56
2024/03/31 10:44:02;;;;;;;17.70;12.93;;;18.30;99.90;;;;;;10379556;28;20053;-55
2024/03/31 10:49:07;;;;;;;14.63;10.50;;;18.50;99.90;;;;;;10387803;28;20143;-56
2024/03/31 10:54:28;;;;;;;17.08;10.13;;;18.70;99.90;;;;;;10388029;28;20060;-54
2024/03/31 10:59:35;;;;;;;15.15;9.73;;;19.00;99.90;;;;;;10377673;28;20868;-56
2024/03/31 11:04:39;;;;;;;13.15;8.88;;;19.10;99.90;;;;;;10383529;28;20777;-58
2024/03/31 11:09:43;;;;;;;19.00;9.13;;;19.10;99.90;;;;;;10382585;28;20046;-57
2024/03/31 11:14:46;;;;;;;23.30;12.13;;;19.20;99.90;;;;;;10378584;28;20060;-56
2024/03/31 11:19:53;;;;;;;19.27;10.25;;;19.40;99.90;;;;;;10391187;28;20831;-57
2024/03/31 11:24:55;;;;;;;16.00;7.93;;;19.40;99.90;;;;;;10391517;28;20108;-57
2024/03/31 11:29:58;;;;;;;13.43;8.02;;;19.60;99.90;;;;;;10384854;28;20513;-57
2024/03/31 11:35:07;;;;;;;12.18;6.60;;;19.60;99.90;;;;;;10386352;28;20409;-57
2024/03/31 11:40:11;;;;;;;17.23;9.00;;;19.70;99.90;;;;;;10373152;28;20048;-55
2024/03/31 11:45:14;;;;;;;13.43;7.50;;;19.70;99.90;;;;;;10383053;28;20563;-56
2024/03/31 11:50:18;;;;;;;13.90;8.18;;;19.80;99.90;;;;;;10383270;28;20048;-56
2024/03/31 11:55:20;;;;;;;14.02;6.90;;;19.90;99.90;;;;;;10375829;28;20061;-58
2024/03/31 12:00:22;;;;;;;9.60;5.65;;;20.00;99.90;;;;;;10394413;28;20052;-57
2024/03/31 12:05:25;;;;;;;10.32;4.75;;;19.90;99.90;;;;;;10390789;28;20582;-55
2024/03/31 12:10:28;;;;;;;10.38;5.55;;;20.10;99.90;;;;;;10388934;28;20065;-58
2024/03/31 12:15:34;;;;;;;11.25;5.72;;;20.20;99.90;;;;;;10385313;28;20084;-58
2024/03/31 12:20:37;;;;;;;10.23;5.50;;;20.40;99.90;;;;;;10380715;28;20058;-59
2024/03/31 12:25:40;;;;;;;15.48;5.78;;;20.50;99.90;;;;;;10404521;28;20044;-58
2024/03/31 12:30:47;;;;;;;11.38;5.55;;;20.50;99.90;;;;;;10396204;28;20455;-58
2024/03/31 12:35:51;;;;;;;16.17;4.47;;;20.70;99.90;;;;;;10391501;28;20056;-59
2024/03/31 12:40:58;;;;;;;11.75;4.47;;;20.70;99.90;;;;;;10387890;28;20045;-58
2024/03/31 12:46:08;;;;;;;8.43;4.30;;;20.90;99.90;;;;;;10383415;28;20433;-57
2024/03/31 12:51:23;;;;;;;24.33;4.88;;;20.90;99.90;;;;;;10392166;28;20049;-57
2024/03/31 12:56:25;;;;;;;10.38;3.00;;;20.90;99.90;;;;;;10384331;28;20127;-58
2024/03/31 13:01:28;;;;;;;9.57;2.28;;;20.80;99.90;;;;;;10379154;28;20188;-58
2024/03/31 13:06:34;;;;;;;7.10;2.08;;;20.80;99.90;;;;;;10384647;28;20061;-58
2024/03/31 13:11:36;;;;;;;6.65;1.83;;;20.90;99.90;;;;;;10379366;28;20963;-58
2024/03/31 13:16:42;;;;;;;4.00;1.25;;;20.80;99.90;;;;;;10382018;28;20428;-58
2024/03/31 13:21:46;;;;;;;9.25;2.13;;;20.80;99.90;;;;;;10383864;28;20049;-57
2024/03/31 13:26:52;;;;;;;4.03;1.50;;;20.80;99.90;;;;;;10380350;28;20049;-59
2024/03/31 13:31:54;;;;;;;2.97;1.00;;;20.60;99.90;;;;;;10377843;28;20096;-60
2024/03/31 13:36:57;;;;;;;2.58;1.05;;;20.50;99.90;;;;;;10376687;28;20061;-57
2024/03/31 13:42:01;;;;;;;1.83;0.60;;;20.30;99.90;;;;;;10380318;28;20178;-60
2024/03/31 13:47:04;;;;;;;2.28;0.70;;;20.40;99.90;;;;;;10379082;28;20148;-56
2024/03/31 13:52:07;;;;;;;2.55;1.20;;;20.60;99.90;;;;;;10383560;28;20049;-58
2024/03/31 13:57:14;;;;;;;4.78;0.80;;;20.60;99.90;;;;;;10389487;28;22283;-58
2024/03/31 14:02:19;;;;;;;4.93;1.23;;;20.50;99.90;;;;;;10372465;28;20092;-58
2024/03/31 14:07:22;;;;;;;5.63;1.95;;;20.60;99.90;;;;;;10378384;28;20057;-55
2024/03/31 14:12:24;;;;;;;4.25;1.27;;;20.70;99.90;;;;;;10376804;28;20077;-58
2024/03/31 14:17:26;;;;;;;6.63;2.33;;;20.60;99.90;;;;;;10381348;28;20612;-58
2024/03/31 14:22:29;;;;;;;2.65;1.08;;;20.50;99.90;;;;;;10382547;28;20050;-56
2024/03/31 14:27:31;;;;;;;4.18;0.50;;;20.40;99.90;;;;;;10381430;28;20053;-58
2024/03/31 14:32:33;;;;;;;2.47;0.80;;;20.40;99.90;;;;;;10377531;28;20052;-58
2024/03/31 14:37:37;;;;;;;2.88;0.63;;;20.40;99.90;;;;;;10376423;28;20060;-59
2024/03/31 14:42:39;;;;;;;1.42;0.65;;;20.50;99.90;;;;;;10375270;28;20049;-57
2024/03/31 14:47:41;;;;;;;3.78;0.80;;;20.50;99.90;;;;;;10380809;28;20053;-59
2024/03/31 14:52:44;;;;;;;3.40;1.25;;;20.60;99.90;;;;;;10383185;28;20805;-57
2024/03/31 14:57:47;;;;;;;4.10;0.77;;;20.60;99.90;;;;;;10384446;28;20053;-57
2024/03/31 15:02:53;;;;;;;5.35;1.00;;;20.60;99.90;;;;;;10390995;28;20382;-58
2024/03/31 15:07:58;;;;;;;2.97;1.00;;;20.60;99.90;;;;;;10387122;28;20057;-57
2024/03/31 15:13:00;;;;;;;2.80;0.60;;;20.50;99.90;;;;;;10378315;28;20524;-59
2024/03/31 15:18:03;;;;;;;4.38;0.50;;;20.50;99.90;;;;;;10380186;28;20053;-57
2024/03/31 15:23:07;;;;;;;1.50;0.73;;;20.50;99.90;;;;;;10377435;28;20054;-57
2024/03/31 15:28:14;;;;;;;4.15;1.05;;;20.40;99.90;;;;;;10378326;28;20057;-58
2024/03/31 15:33:22;;;;;;;3.60;1.33;;;20.30;99.90;;;;;;10379108;28;20060;-60
2024/03/31 15:38:42;;;;;;;4.47;2.47;;;20.30;99.90;;;;;;10461577;27;20623;-56
2024/03/31 15:43:47;;;;;;;4.57;1.33;;;20.20;99.90;;;;;;10458094;28;20140;-56
2024/03/31 15:48:52;;;;;;;3.38;1.10;;;20.10;99.90;;;;;;10465580;28;20052;-57
2024/03/31 15:54:01;;;;;;;1.48;0.88;;;20.00;99.90;;;;;;10460173;28;20801;-58
2024/03/31 15:59:03;;;;;;;3.25;1.08;;;20.10;99.90;;;;;;10465826;28;20053;-58
2024/03/31 16:04:05;;;;;;;4.88;2.22;;;20.00;99.90;;;;;;10458731;28;20048;-56
2024/03/31 16:09:08;;;;;;;9.73;1.67;;;20.00;99.90;;;;;;10459930;28;20052;-56
2024/03/31 16:14:10;;;;;;;5.80;1.90;;;19.90;99.90;;;;;;10462085;28;20064;-54
2024/03/31 16:19:13;;;;;;;4.07;1.55;;;19.90;99.90;;;;;;10458433;28;20053;-58
2024/03/31 16:24:16;;;;;;;3.17;1.70;;;19.70;99.90;;;;;;10451425;28;20056;-55
2024/03/31 16:29:20;;;;;;;6.70;1.30;;;19.70;99.90;;;;;;10459398;28;20086;-56
2024/03/31 16:34:27;;;;;;;7.47;1.13;;;19.60;99.90;;;;;;10460635;28;20532;-56
2024/03/31 16:39:32;;;;;;;4.60;1.00;;;19.50;99.90;;;;;;10464891;28;20059;-54
2024/03/31 16:44:43;;;;;;;4.20;1.25;;;19.40;99.90;;;;;;10461030;28;20136;-56
2024/03/31 16:49:48;;;;;;;6.75;1.42;;;19.40;99.90;;;;;;10436082;28;20053;-56
2024/03/31 16:54:55;;;;;;;5.60;1.35;;;19.30;99.90;;;;;;10431283;28;20420;-57
2024/03/31 16:59:57;;;;;;;2.95;1.23;;;19.30;99.90;;;;;;10429737;28;20751;-57
2024/03/31 17:04:59;;;;;;;3.35;1.02;;;19.20;99.90;;;;;;10422219;28;20849;-57
2024/03/31 17:10:02;;;;;;;5.95;1.23;;;19.20;99.90;;;;;;10424991;28;20550;-58
2024/03/31 17:15:05;;;;;;;2.85;1.17;;;19.10;99.90;;;;;;10421415;28;20081;-55
2024/03/31 17:20:10;;;;;;;5.35;1.35;;;19.10;99.90;;;;;;10422416;28;20049;-54
2024/03/31 17:25:16;;;;;;;4.50;1.98;;;19.00;99.90;;;;;;10429905;28;20180;-57
2024/03/31 17:30:19;;;;;;;6.82;2.88;;;18.80;99.90;;;;;;10421676;28;20517;-56
2024/03/31 17:35:21;;;;;;;5.90;2.35;;;18.70;99.90;;;;;;10426706;28;20055;-58
2024/03/31 17:40:25;;;;;;;4.35;3.05;;;17.40;99.90;;;;;;10421996;28;20067;-56
2024/03/31 17:45:30;;;;;;;7.68;3.10;;;16.10;99.90;;;;;;10429011;28;20064;-56
2024/03/31 17:50:33;;;;;;;4.53;2.72;;;15.90;99.90;;;;;;10426145;28;20056;-57
2024/03/31 17:55:43;;;;;;;7.05;2.47;;;16.10;99.90;;;;;;10407577;28;20161;-56
2024/03/31 18:00:46;;;;;;;5.63;3.63;;;15.40;99.90;;;;;;10422395;28;20069;-56
2024/03/31 18:06:02;;;;;;;10.23;4.15;;;14.80;99.90;;;;;;10424144;28;20049;-54
2024/03/31 18:11:11;;;;;;;5.25;2.90;;;14.70;99.90;;;;;;10420124;28;20041;-55
2024/03/31 18:16:14;;;;;;;8.18;3.28;;;14.60;99.90;;;;;;10415593;28;20113;-57
2024/03/31 18:21:18;;;;;;;10.82;5.05;;;14.40;99.90;;;;;;10435763;28;20742;-55
2024/03/31 18:26:22;;;;;;;6.47;4.00;;;14.20;99.90;;;;;;10426104;28;20061;-57
2024/03/31 18:31:24;;;;;;;11.30;3.95;;;14.30;99.90;;;;;;10426747;28;20405;-55
2024/03/31 18:36:26;;;;;;;;;;;14.20;99.90;;;;;;10423006;28;20849;-54
2024/03/31 18:41:31;;;;;;;5.70;2.78;;;14.30;99.90;;;;;;10425103;28;19933;-57
2024/03/31 18:46:33;;;;;;;5.80;3.47;;;14.40;99.90;;;;;;10425438;28;20052;-58
2024/03/31 18:51:35;;;;;;;14.07;5.50;;;14.60;99.90;;;;;;10416573;28;20527;-56
2024/03/31 18:56:40;;;;;;;6.78;2.55;;;16.10;99.90;;;;;;10415113;28;20487;-57
2024/03/31 19:01:46;;;;;;;5.90;3.20;;;16.90;99.90;;;;;;10424059;28;20190;-56
2024/03/31 19:06:50;;;;;;;4.75;2.22;;;17.20;99.90;;;;;;10421526;28;20063;-53
2024/03/31 19:11:54;;;;;;;8.32;2.75;;;17.30;99.90;;;;;;10423756;28;20061;-56
2024/03/31 19:16:56;;;;;;;7.00;3.20;;;17.50;99.90;;;;;;10424245;28;20052;-54
2024/03/31 19:22:00;;;;;;;9.23;2.80;;;17.60;99.90;;;;;;10424889;28;20057;-56
2024/03/31 19:27:04;;;;;;;8.30;2.33;;;17.70;99.90;;;;;;10435468;28;20420;-57
2024/03/31 19:32:06;;;;;;;4.18;2.47;;;17.60;99.90;;;;;;10420059;28;20419;-58
2024/03/31 19:37:08;;;;;;;5.68;2.45;;;17.80;99.90;;;;;;10431603;28;20056;-57
2024/03/31 19:42:15;;;;;;;3.45;2.05;;;18.00;99.90;;;;;;10434895;28;20056;-56
2024/03/31 19:47:17;;;;;;;3.78;2.10;;;18.00;99.90;;;;;;10416936;28;20130;-56
2024/03/31 19:52:19;;;;;;;9.02;2.15;;;18.00;99.90;;;;;;10421408;28;20062;-54
2024/03/31 19:57:22;;;;;;;5.28;1.90;;;16.60;99.90;;;;;;10432263;28;20403;-57
2024/03/31 20:02:25;;;;;;;7.07;2.22;;;16.30;99.90;;;;;;10432012;28;20068;-56
2024/03/31 20:07:27;;;;;;;2.88;1.92;;;15.40;99.90;;;;;;10414003;28;20049;-57
2024/03/31 20:12:30;;;;;;;7.47;2.80;;;14.80;99.90;;;;;;10441485;28;20052;-56
2024/03/31 20:17:33;;;;;;;4.78;2.60;;;14.50;99.90;;;;;;10437309;28;20053;-56
2024/03/31 20:22:35;;;;;;;6.20;2.42;;;14.90;99.90;;;;;;10454275;28;20127;-59
2024/03/31 20:27:39;;;;;;;2.73;2.17;;;15.30;99.90;;;;;;10435147;28;20051;-57
2024/03/31 20:32:41;;;;;;;5.00;3.03;;;15.30;99.90;;;;;;10449490;28;20478;-57
2024/03/31 20:37:43;;;;;;;8.60;3.20;;;14.40;99.90;;;;;;10440603;28;20057;-57
2024/03/31 20:42:46;;;;;;;11.57;2.65;;;13.90;99.90;;;;;;10437090;28;20053;-57
2024/03/31 20:47:51;;;;;;;10.90;3.38;;;16.00;99.90;;;;;;10435434;28;20045;-56
2024/03/31 20:52:53;;;;;;;5.97;3.10;;;16.40;99.90;;;;;;10418289;28;20132;-53
2024/03/31 20:57:57;;;;;;;8.40;3.10;;;16.70;99.90;;;;;;10423262;28;20068;-56
2024/03/31 21:03:02;;;;;;;6.82;2.95;;;16.80;99.90;;;;;;10434603;28;20059;-57
2024/03/31 21:08:05;;;;;;;4.93;2.70;;;16.60;99.90;;;;;;10447797;28;20041;-56
2024/03/31 21:13:20;;;;;;;7.72;3.60;;;16.70;99.90;;;;;;10433781;28;20476;-55
2024/03/31 21:18:22;;;;;;;7.90;3.38;;;16.40;99.90;;;;;;10417962;28;20045;-55
2024/03/31 21:23:24;;;;;;;3.83;2.85;;;16.70;99.90;;;;;;10438469;28;20049;-57
2024/03/31 21:28:27;;;;;;;8.93;3.10;;;16.60;99.90;;;;;;10439953;28;20436;-58
2024/03/31 21:33:29;;;;;;;8.23;3.42;;;16.40;99.90;;;;;;10446919;28;20487;-58
2024/03/31 21:38:32;;;;;;;11.43;3.92;;;16.40;99.90;;;;;;10434844;28;20045;-56
2024/03/31 21:43:36;;;;;;;5.47;2.90;;;16.40;99.90;;;;;;10423782;28;20071;-57
2024/03/31 21:48:38;;;;;;;6.65;4.22;;;16.60;99.90;;;;;;10437391;28;20550;-57
2024/03/31 21:53:40;;;;;;;8.60;3.55;;;16.60;99.90;;;;;;10442378;28;20425;-57
2024/03/31 21:58:45;;;;;;;;;;;16.40;99.90;;;;;;10435723;28;20044;-56
2024/03/31 22:03:50;;;;;;;8.32;4.05;;;16.40;99.90;;;;;;10444512;28;19978;-57
2024/03/31 22:08:52;;;;;;;6.63;3.90;;;16.30;99.90;;;;;;10438407;28;20049;-56
2024/03/31 22:13:57;;;;;;;5.97;3.90;;;16.50;99.90;;;;;;10429787;28;20049;-56
2024/03/31 22:19:02;;;;;;;6.50;3.80;;;16.30;99.90;;;;;;10427275;28;20049;-55
2024/03/31 22:24:07;;;;;;;9.68;5.25;;;16.30;99.90;;;;;;10428056;28;20136;-56
2024/03/31 22:29:13;;;;;;;9.05;5.03;;;16.40;99.90;;;;;;10419826;28;20110;-56
2024/03/31 22:34:16;;;;;;;8.52;4.78;;;16.40;99.90;;;;;;10434475;28;20076;-55
2024/03/31 22:39:18;;;;;;;;;;;16.30;99.90;;;;;;10441588;28;20080;-57
2024/03/31 22:44:22;;;;;;;9.82;6.05;;;16.30;99.90;;;;;;10422206;28;19936;-57
2024/03/31 22:49:23;;;;;;;11.90;6.20;;;16.20;99.90;;;;;;10432367;28;20079;-56
2024/03/31 22:54:32;;;;;;;12.98;6.90;;;16.20;99.90;;;;;;10436052;28;20543;-54
2024/03/31 22:59:38;;;;;;;17.63;7.68;;;16.10;99.90;;;;;;10430632;28;20041;-57
2024/03/31 23:04:45;;;;;;;17.77;8.45;;;16.00;99.90;;;;;;10426860;28;20758;-55
2024/03/31 23:09:47;;;;;;;19.95;8.18;;;15.90;99.90;;;;;;10426367;28;20750;-56
2024/03/31 23:14:51;;;;;;;14.43;7.45;;;15.80;99.90;;;;;;10436105;28;20053;-56
2024/03/31 23:19:53;;;;;;;13.73;7.93;;;15.80;99.90;;;;;;10425668;28;20057;-57
2024/03/31 23:24:55;;;;;;;14.00;8.32;;;15.80;99.90;;;;;;10429236;28;20471;-55
2024/03/31 23:29:58;;;;;;;17.00;9.02;;;15.80;99.90;;;;;;10431466;28;20048;-56
2024/03/31 23:35:01;;;;;;;18.55;9.63;;;15.60;99.90;;;;;;10440099;28;20069;-56
2024/03/31 23:40:03;;;;;;;14.38;8.02;;;15.60;99.90;;;;;;10433908;28;20053;-56
2024/03/31 23:45:07;;;;;;;;;;;15.80;99.90;;;;;;10435578;28;20467;-57
2024/03/31 23:50:09;;;;;;;13.52;8.02;;;15.50;99.90;;;;;;10437559;28;19921;-58
2024/03/31 23:55:15;;;;;;;16.00;8.13;;;15.50;99.90;;;;;;10435453;28;20517;-57
